createdAt,value
2022-09-06T00:00:27.036Z,10.00
2022-09-06T00:02:54.578Z,12.50
2022-09-06T00:05:21.960Z,9.20
2022-09-06T00:07:49.149Z,9.00
2022-09-06T00:10:16.375Z,10.80
2022-09-06T00:12:43.500Z,11.60
2022-09-06T00:15:12.065Z,11.40
2022-09-06T00:17:39.278Z,9.80
2022-09-06T00:20:09.459Z,10.30
2022-09-06T00:22:37.454Z,10.10
2022-09-06T00:25:06.617Z,9.90
2022-09-06T00:27:34.411Z,9.80
2022-09-06T00:30:01.548Z,10.70
2022-09-06T00:32:28.681Z,9.90
2022-09-06T00:34:55.737Z,8.60
2022-09-06T00:37:22.984Z,9.20
2022-09-06T00:39:50.362Z,10.30
2022-09-06T00:42:17.599Z,14.80
2022-09-06T00:44:44.744Z,10.30
2022-09-06T00:47:11.889Z,11.40
2022-09-06T00:49:41.924Z,10.50
2022-09-06T00:52:11.045Z,10.10
2022-09-06T00:54:38.353Z,7.90
2022-09-06T00:57:05.605Z,9.70
2022-09-06T00:59:34.701Z,7.30
2022-09-06T01:02:02.011Z,9.00
2022-09-06T01:04:29.306Z,11.40
2022-09-06T01:06:56.351Z,7.50
2022-09-06T01:09:34.152Z,7.30
2022-09-06T01:12:07.545Z,7.90
2022-09-06T01:14:34.618Z,7.90
2022-09-06T01:17:17.043Z,9.40
2022-09-06T01:19:47.122Z,8.60
2022-09-06T01:22:26.812Z,9.90
2022-09-06T01:24:59.646Z,8.60
2022-09-06T01:27:32.941Z,9.60
2022-09-06T01:30:10.437Z,7.80
2022-09-06T01:32:45.059Z,9.70
2022-09-06T01:35:19.410Z,10.00
2022-09-06T01:37:46.627Z,9.00
2022-09-06T01:40:13.798Z,8.70
2022-09-06T01:42:41.029Z,9.80
2022-09-06T01:45:09.653Z,9.50
2022-09-06T01:47:46.489Z,7.60
2022-09-06T01:50:51.220Z,9.80
2022-09-06T01:54:03.221Z,12.70
2022-09-06T01:56:56.486Z,7.90
2022-09-06T01:59:37.046Z,11.00
2022-09-06T02:02:08.409Z,8.40
2022-09-06T02:04:47.564Z,8.40
2022-09-06T02:07:21.944Z,7.60
2022-09-06T02:09:52.677Z,9.80
2022-09-06T02:12:20.040Z,7.70
2022-09-06T02:15:02.234Z,8.40
2022-09-06T02:17:35.735Z,9.80
2022-09-06T02:20:09.648Z,10.40
2022-09-06T02:22:39.913Z,10.60
2022-09-06T02:25:08.361Z,10.10
2022-09-06T02:27:35.493Z,11.50
2022-09-06T02:30:05.716Z,10.30
2022-09-06T02:32:35.164Z,12.20
2022-09-06T02:35:09.249Z,18.30
2022-09-06T02:37:36.382Z,12.20
2022-09-06T02:40:04.316Z,10.60
2022-09-06T02:42:31.499Z,12.30
2022-09-06T02:44:58.853Z,8.50
2022-09-06T02:47:26.047Z,12.30
2022-09-06T02:49:53.151Z,12.40
2022-09-06T02:52:20.613Z,8.70
2022-09-06T02:54:47.661Z,11.40
2022-09-06T02:57:14.733Z,11.00
2022-09-06T02:59:41.859Z,10.60
2022-09-06T03:02:09.189Z,12.60
2022-09-06T03:04:36.356Z,11.00
2022-09-06T03:07:03.522Z,9.80
2022-09-06T03:09:30.654Z,9.70
2022-09-06T03:11:57.812Z,14.10
2022-09-06T03:14:24.954Z,9.50
2022-09-06T03:16:52.188Z,9.70
2022-09-06T03:19:20.585Z,7.90
2022-09-06T03:21:47.735Z,10.00
2022-09-06T03:24:14.921Z,8.60
2022-09-06T03:26:42.034Z,9.30
2022-09-06T03:29:09.116Z,10.20
2022-09-06T03:31:36.238Z,12.90
2022-09-06T03:34:04.162Z,11.00
2022-09-06T03:36:32.413Z,12.90
2022-09-06T03:38:59.523Z,8.10
2022-09-06T03:41:26.809Z,13.40
2022-09-06T03:43:54.133Z,7.90
2022-09-06T03:46:21.359Z,8.80
2022-09-06T03:48:48.536Z,8.00
2022-09-06T03:51:15.809Z,8.80
2022-09-06T03:53:42.829Z,9.50
2022-09-06T03:56:10.050Z,7.30
2022-09-06T03:58:37.235Z,8.40
2022-09-06T04:01:07.096Z,7.20
2022-09-06T04:03:34.402Z,7.30
2022-09-06T04:06:01.653Z,7.50
2022-09-06T04:08:29.062Z,6.10
2022-09-06T04:10:56.980Z,8.00
2022-09-06T04:13:24.856Z,4.90
2022-09-06T04:15:53.014Z,7.50
2022-09-06T04:18:20.677Z,5.60
2022-09-06T04:20:52.053Z,10.50
2022-09-06T04:23:19.500Z,10.30
2022-09-06T04:25:50.550Z,8.80
2022-09-06T04:28:18.834Z,8.20
2022-09-06T04:30:51.912Z,7.10
2022-09-06T04:33:18.961Z,9.00
2022-09-06T04:35:59.496Z,7.10
2022-09-06T04:38:27.617Z,10.80
2022-09-06T04:40:58.000Z,10.60
2022-09-06T04:43:25.007Z,9.40
2022-09-06T04:45:52.106Z,9.30
2022-09-06T04:48:19.277Z,10.20
2022-09-06T04:50:50.490Z,9.40
2022-09-06T04:53:17.663Z,11.00
2022-09-06T04:55:44.986Z,11.20
2022-09-06T04:58:12.272Z,10.10
2022-09-06T05:00:40.136Z,9.30
2022-09-06T05:03:07.466Z,8.00
2022-09-06T05:05:34.615Z,6.90
2022-09-06T05:08:01.756Z,15.50
2022-09-06T05:10:28.907Z,10.90
2022-09-06T05:12:56.059Z,10.10
2022-09-06T05:15:23.312Z,10.50
2022-09-06T05:17:50.592Z,12.50
2022-09-06T05:20:20.212Z,10.80
2022-09-06T05:22:56.023Z,7.70
2022-09-06T05:25:23.177Z,10.70
2022-09-06T05:27:50.523Z,12.30
2022-09-06T05:30:18.736Z,10.50
2022-09-06T05:32:51.790Z,10.90
2022-09-06T05:35:18.873Z,11.20
2022-09-06T05:37:46.094Z,7.70
2022-09-06T05:40:13.399Z,10.40
2022-09-06T05:42:41.514Z,8.50
2022-09-06T05:45:09.284Z,9.40
2022-09-06T05:47:38.916Z,12.60
2022-09-06T05:50:07.219Z,14.50
2022-09-06T05:52:35.450Z,6.90
2022-09-06T05:55:04.017Z,8.00
2022-09-06T05:57:31.171Z,11.40
2022-09-06T05:59:58.419Z,9.10
2022-09-06T06:02:25.638Z,8.80
2022-09-06T06:04:58.563Z,8.30
2022-09-06T06:07:25.806Z,10.40
2022-09-06T06:09:52.959Z,7.10
2022-09-06T06:12:25.140Z,12.60
2022-09-06T06:14:52.378Z,9.00
2022-09-06T06:17:22.917Z,11.20
2022-09-06T06:19:50.392Z,7.80
2022-09-06T06:22:17.512Z,11.10
2022-09-06T06:24:44.620Z,9.10
2022-09-06T06:27:11.810Z,10.50
2022-09-06T06:29:39.176Z,10.50
2022-09-06T06:32:06.376Z,8.50
2022-09-06T06:34:33.667Z,8.80
2022-09-06T06:37:00.815Z,6.70
2022-09-06T06:39:28.005Z,8.10
2022-09-06T06:41:55.969Z,6.80
2022-09-06T06:44:46.162Z,9.10
2022-09-06T06:47:13.272Z,8.90
2022-09-06T06:49:42.796Z,7.20
2022-09-06T06:52:10.032Z,4.70
2022-09-06T06:54:41.632Z,7.60
2022-09-06T06:57:09.884Z,8.10
2022-09-06T06:59:39.211Z,7.30
2022-09-06T07:02:07.225Z,6.50
2022-09-06T07:04:34.708Z,5.40
2022-09-06T07:12:37.009Z,7.70
2022-09-06T07:15:04.866Z,5.30
2022-09-06T07:17:32.026Z,7.00
2022-09-06T07:20:15.013Z,4.50
2022-09-06T07:22:42.845Z,5.60
2022-09-06T07:25:10.669Z,4.60
2022-09-06T07:27:47.665Z,5.20
2022-09-06T07:30:16.428Z,8.80
2022-09-06T07:32:43.613Z,5.40
2022-09-06T07:35:12.671Z,5.80
2022-09-06T07:37:39.837Z,6.70
2022-09-06T07:40:07.677Z,9.70
2022-09-06T07:42:36.174Z,8.60
2022-09-06T07:45:05.551Z,21.90
2022-09-06T07:53:10.947Z,8.20
2022-09-06T07:55:43.040Z,10.00
2022-09-06T07:58:10.162Z,11.40
2022-09-06T08:00:38.784Z,9.10
2022-09-06T08:03:06.002Z,7.30
2022-09-06T08:11:08.026Z,7.60
2022-09-06T08:13:35.968Z,6.80
2022-09-06T08:16:05.264Z,6.60
2022-09-06T08:18:32.628Z,4.20
2022-09-06T08:21:12.376Z,5.50
2022-09-06T08:23:48.666Z,3.70
2022-09-06T08:26:17.120Z,7.20
2022-09-06T08:28:44.673Z,4.40
2022-09-06T08:31:13.727Z,5.40
2022-09-06T08:33:40.919Z,3.20
2022-09-06T08:36:08.677Z,6.70
2022-09-06T08:38:36.336Z,6.70
2022-09-06T08:41:26.152Z,5.10
2022-09-06T08:46:58.429Z,4.10
2022-09-06T08:49:27.308Z,4.50
2022-09-06T08:52:22.622Z,3.60
2022-09-06T08:55:05.338Z,3.30
2022-09-06T08:57:57.380Z,5.20
2022-09-06T09:00:24.725Z,5.20
2022-09-06T09:02:55.546Z,10.10
2022-09-06T09:05:23.962Z,4.20
2022-09-06T09:08:14.586Z,4.30
2022-09-06T09:11:03.217Z,4.60
2022-09-06T09:13:49.282Z,4.50
2022-09-06T09:16:16.828Z,3.20
2022-09-06T09:18:45.497Z,3.10
2022-09-06T09:21:12.668Z,4.40
2022-09-06T09:23:39.815Z,4.30
2022-09-06T09:26:11.778Z,2.50
2022-09-06T09:28:39.036Z,2.30
2022-09-06T09:31:07.356Z,1.90
2022-09-06T09:33:36.053Z,3.50
2022-09-06T09:36:07.539Z,3.40
2022-09-06T09:38:43.178Z,3.90
2022-09-06T09:41:10.683Z,2.80
2022-09-06T09:43:41.447Z,3.70
2022-09-06T09:46:11.854Z,2.60
2022-09-06T09:48:39.882Z,3.70
2022-09-06T09:51:25.455Z,3.30
2022-09-06T09:54:02.266Z,3.90
2022-09-06T09:56:52.682Z,4.90
2022-09-06T09:59:39.751Z,5.90
2022-09-06T10:02:27.793Z,2.70
2022-09-06T10:05:02.972Z,3.80
2022-09-06T10:07:30.179Z,3.00
2022-09-06T10:10:27.390Z,4.20
2022-09-06T10:13:31.861Z,1.50
2022-09-06T10:15:59.702Z,3.90
2022-09-06T10:18:33.946Z,6.00
2022-09-06T10:21:01.617Z,3.90
2022-09-06T10:26:21.952Z,3.00
2022-09-06T10:28:49.137Z,10.00
2022-09-06T10:31:47.931Z,5.30
2022-09-06T10:34:43.310Z,6.60
2022-09-06T10:37:16.597Z,4.80
2022-09-06T10:40:16.373Z,4.80
2022-09-06T10:42:54.891Z,5.00
2022-09-06T10:45:31.361Z,5.40
2022-09-06T10:48:05.610Z,6.70
2022-09-06T10:50:38.367Z,2.00
2022-09-06T10:53:34.075Z,1.90
2022-09-06T10:56:17.911Z,2.20
2022-09-06T11:01:52.465Z,3.60
2022-09-06T11:07:31.851Z,4.70
2022-09-06T11:10:03.377Z,3.50
2022-09-06T11:12:39.835Z,4.00
2022-09-06T11:15:07.396Z,2.50
2022-09-06T11:17:34.748Z,4.70
2022-09-06T11:20:33.543Z,3.20
2022-09-06T11:23:09.960Z,7.20
2022-09-06T11:26:14.664Z,2.60
2022-09-06T11:28:55.919Z,2.70
2022-09-06T11:34:23.443Z,2.60
2022-09-06T11:37:10.140Z,4.40
2022-09-06T11:42:45.603Z,4.10
2022-09-06T11:45:13.037Z,3.80
2022-09-06T11:47:41.005Z,4.70
2022-09-06T11:50:20.633Z,2.20
2022-09-06T11:53:13.129Z,3.90
2022-09-06T11:56:02.455Z,2.80
2022-09-06T11:58:42.026Z,7.40
2022-09-06T12:01:16.948Z,3.80
2022-09-06T12:07:31.869Z,6.00
2022-09-06T12:10:02.135Z,2.20
2022-09-06T12:12:46.856Z,3.20
2022-09-06T12:15:25.715Z,5.80
2022-09-06T12:17:53.279Z,4.50
2022-09-06T12:20:48.812Z,6.30
2022-09-06T12:23:34.685Z,5.30
2022-09-06T12:26:09.402Z,3.60
2022-09-06T12:28:41.382Z,5.00
2022-09-06T12:31:35.849Z,3.20
2022-09-06T12:34:09.458Z,5.20
2022-09-06T12:36:37.015Z,5.10
2022-09-06T12:39:14.072Z,7.30
2022-09-06T12:41:47.632Z,3.90
2022-09-06T12:44:15.363Z,5.30
2022-09-06T12:46:50.416Z,4.20
2022-09-06T12:49:22.099Z,4.10
2022-09-06T12:51:50.224Z,4.50
2022-09-06T12:54:25.385Z,5.50
2022-09-06T12:56:52.826Z,4.70
2022-09-06T12:59:25.350Z,4.60
2022-09-06T13:01:58.869Z,6.30
2022-09-06T13:04:30.447Z,6.10
2022-09-06T13:06:58.281Z,4.80
2022-09-06T13:09:27.509Z,5.20
2022-09-06T13:11:54.786Z,5.90
2022-09-06T13:14:24.743Z,6.10
2022-09-06T13:16:52.685Z,7.10
2022-09-06T13:19:37.184Z,5.40
2022-09-06T13:22:08.803Z,4.10
2022-09-06T13:24:36.051Z,3.40
2022-09-06T13:27:31.359Z,6.70
2022-09-06T13:30:36.707Z,5.50
2022-09-06T13:33:05.362Z,7.00
2022-09-06T13:39:12.402Z,5.90
2022-09-06T13:41:59.617Z,5.20
2022-09-06T13:44:34.274Z,3.70
2022-09-06T13:56:12.253Z,3.90
2022-09-06T13:58:39.884Z,4.10
2022-09-06T14:01:10.235Z,4.60
2022-09-06T14:03:38.415Z,5.00
2022-09-06T14:06:05.667Z,4.00
2022-09-06T14:08:55.729Z,6.00
2022-09-06T14:11:20.601Z,5.70
2022-09-06T14:13:48.266Z,5.70
2022-09-06T14:16:15.612Z,3.90
2022-09-06T14:18:43.497Z,4.30
2022-09-06T14:21:11.351Z,3.90
2022-09-06T14:23:38.502Z,4.50
2022-09-06T14:26:05.987Z,4.90
2022-09-06T14:28:34.172Z,5.30
2022-09-06T14:31:12.637Z,6.80
2022-09-06T14:33:39.931Z,5.80
2022-09-06T14:36:11.575Z,6.30
2022-09-06T14:38:39.549Z,6.20
2022-09-06T14:41:08.208Z,11.70
2022-09-06T14:43:35.989Z,5.00
2022-09-06T14:46:07.602Z,6.30
2022-09-06T14:48:36.440Z,4.10
2022-09-06T14:51:21.815Z,5.70
2022-09-06T14:53:52.245Z,10.10
2022-09-06T14:56:19.572Z,7.30
2022-09-06T14:58:47.148Z,7.20
2022-09-06T15:01:20.070Z,8.10
2022-09-06T15:06:16.366Z,5.60
2022-09-06T15:08:43.614Z,7.50
2022-09-06T15:11:11.381Z,7.40
2022-09-06T15:13:42.239Z,7.40
2022-09-06T15:16:10.378Z,7.50
2022-09-06T15:18:38.060Z,4.30
2022-09-06T15:21:12.484Z,5.30
2022-09-06T15:23:40.342Z,5.10
2022-09-06T15:26:08.926Z,8.20
2022-09-06T15:28:39.982Z,5.10
2022-09-06T15:31:07.933Z,9.80
2022-09-06T15:33:36.317Z,5.20
2022-09-06T15:36:06.727Z,8.30
2022-09-06T15:38:41.769Z,6.20
2022-09-06T15:41:30.523Z,10.40
2022-09-06T15:43:59.212Z,5.40
2022-09-06T15:46:35.532Z,6.20
2022-09-06T15:49:04.196Z,8.60
2022-09-06T15:51:31.513Z,6.70
2022-09-06T15:53:59.488Z,6.60
2022-09-06T15:56:26.653Z,9.20
2022-09-06T15:58:53.884Z,5.50
2022-09-06T16:01:22.793Z,6.60
2022-09-06T16:03:54.776Z,7.30
2022-09-06T16:09:05.929Z,7.30
2022-09-06T16:11:33.898Z,7.20
2022-09-06T16:14:06.761Z,9.30
2022-09-06T16:16:35.173Z,7.20
2022-09-06T16:19:02.723Z,8.40
2022-09-06T16:21:32.377Z,8.50
2022-09-06T16:24:04.600Z,9.50
2022-09-06T16:26:36.285Z,13.10
2022-09-06T16:29:04.139Z,19.90
2022-09-06T16:31:39.109Z,14.10
2022-09-06T16:34:10.752Z,11.80
2022-09-06T16:36:38.749Z,8.40
2022-09-06T16:39:06.575Z,10.30
2022-09-06T16:41:36.878Z,8.70
2022-09-06T16:44:04.026Z,15.60
2022-09-06T16:46:31.562Z,10.40
2022-09-06T16:49:03.318Z,7.10
2022-09-06T16:51:31.516Z,8.80
2022-09-06T16:53:59.069Z,9.40
2022-09-06T16:56:33.702Z,9.30
2022-09-06T16:59:07.981Z,18.50
2022-09-06T17:01:36.494Z,8.60
2022-09-06T17:04:07.432Z,9.00
2022-09-06T17:06:44.775Z,11.00
2022-09-06T17:09:13.855Z,9.50
2022-09-06T17:11:41.068Z,16.90
2022-09-06T17:14:08.426Z,15.40
2022-09-06T17:16:54.280Z,20.10
2022-09-06T17:19:24.285Z,18.90
2022-09-06T17:21:51.474Z,25.30
2022-09-06T17:24:18.677Z,30.90
2022-09-06T17:26:46.488Z,28.00
2022-09-06T17:29:13.655Z,28.90
2022-09-06T17:31:40.892Z,26.80
2022-09-06T17:34:08.899Z,23.20
2022-09-06T17:36:36.224Z,30.50
2022-09-06T17:39:30.136Z,24.20
2022-09-06T17:41:57.643Z,31.60
2022-09-06T17:44:26.054Z,39.10
2022-09-06T17:49:41.013Z,39.00
2022-09-06T17:52:08.187Z,54.20
2022-09-06T17:54:35.408Z,52.20
2022-09-06T17:57:02.591Z,53.40
2022-09-06T17:59:35.476Z,61.00
2022-09-06T18:02:04.334Z,44.50
2022-09-06T18:04:31.569Z,58.00
2022-09-06T18:06:59.145Z,41.80
2022-09-06T18:09:28.543Z,53.40
2022-09-06T18:11:55.797Z,45.20
2022-09-06T18:14:23.565Z,40.80
2022-09-06T18:16:51.780Z,35.10
2022-09-06T18:19:19.192Z,28.70
2022-09-06T18:21:46.682Z,31.50
2022-09-06T18:24:14.137Z,27.80
2022-09-06T18:26:42.006Z,21.00
2022-09-06T18:29:12.398Z,26.30
2022-09-06T18:31:40.116Z,27.50
2022-09-06T18:34:09.145Z,33.30
2022-09-06T18:36:37.544Z,35.40
2022-09-06T18:39:07.018Z,36.40
2022-09-06T18:42:00.011Z,41.90
2022-09-06T18:44:37.378Z,44.50
2022-09-06T18:47:06.954Z,41.90
2022-09-06T18:49:34.522Z,38.70
2022-09-06T18:52:03.130Z,41.70
2022-09-06T18:54:33.159Z,34.60
2022-09-06T18:57:00.508Z,32.60
2022-09-06T18:59:27.857Z,25.00
2022-09-06T19:01:55.317Z,32.00
2022-09-06T19:04:22.973Z,32.40
2022-09-06T19:06:50.353Z,30.50
2022-09-06T19:09:18.236Z,29.30
2022-09-06T19:11:49.541Z,27.90
2022-09-06T19:14:16.689Z,30.60
2022-09-06T19:16:46.178Z,27.20
2022-09-06T19:19:13.822Z,25.50
2022-09-06T19:21:42.692Z,28.40
2022-09-06T19:24:15.851Z,25.40
2022-09-06T19:26:44.397Z,22.50
2022-09-06T19:29:13.976Z,21.50
2022-09-06T19:31:41.679Z,24.70
2022-09-06T19:34:09.094Z,24.30
2022-09-06T19:36:41.103Z,26.90
2022-09-06T19:39:09.827Z,22.80
2022-09-06T19:41:41.656Z,21.10
2022-09-06T19:44:11.770Z,28.50
2022-09-06T19:46:45.423Z,22.70
2022-09-06T19:49:15.537Z,20.40
2022-09-06T19:51:47.553Z,19.30
2022-09-06T19:54:17.102Z,20.60
2022-09-06T19:56:44.624Z,17.90
2022-09-06T19:59:13.325Z,21.70
2022-09-06T20:01:41.555Z,18.30
2022-09-06T20:04:11.390Z,19.80
2022-09-06T20:06:38.948Z,24.50
2022-09-06T20:09:07.551Z,18.20
2022-09-06T20:11:35.861Z,20.80
2022-09-06T20:14:03.120Z,19.80
2022-09-06T20:16:30.930Z,17.10
2022-09-06T20:19:01.715Z,19.80
2022-09-06T20:21:29.218Z,20.10
2022-09-06T20:23:59.676Z,19.70
2022-09-06T20:26:28.229Z,20.30
2022-09-06T20:28:56.449Z,21.20
2022-09-06T20:31:24.075Z,19.90
2022-09-06T20:33:51.520Z,17.30
2022-09-06T20:36:21.434Z,26.80
2022-09-06T20:38:48.968Z,17.90
2022-09-06T20:41:20.871Z,19.90
2022-09-06T20:43:56.014Z,16.10
2022-09-06T20:46:27.858Z,19.00
2022-09-06T20:49:00.018Z,24.10
2022-09-06T20:51:27.677Z,29.10
2022-09-06T20:53:58.827Z,29.60
2022-09-06T20:56:30.513Z,37.40
2022-09-06T20:59:02.706Z,35.30
2022-09-06T21:01:32.358Z,34.90
2022-09-06T21:04:00.249Z,30.00
2022-09-06T21:06:29.293Z,31.90
2022-09-06T21:08:59.332Z,29.80
2022-09-06T21:11:26.728Z,25.20
2022-09-06T21:13:58.556Z,22.80
2022-09-06T21:16:28.390Z,24.40
2022-09-06T21:18:57.719Z,22.70
2022-09-06T21:21:25.732Z,16.80
2022-09-06T21:23:53.292Z,18.20
2022-09-06T21:26:21.104Z,16.20
2022-09-06T21:28:48.623Z,16.40
2022-09-06T21:31:24.626Z,16.20
2022-09-06T21:34:16.826Z,14.50
2022-09-06T21:36:45.191Z,15.40
2022-09-06T21:39:15.312Z,14.40
2022-09-06T21:41:43.377Z,11.00
2022-09-06T21:44:10.832Z,14.90
2022-09-06T21:46:38.773Z,14.30
2022-09-06T21:49:09.318Z,17.90
2022-09-06T21:51:36.992Z,15.70
2022-09-06T21:54:05.082Z,12.80
2022-09-06T21:56:34.267Z,17.10
2022-09-06T21:59:01.651Z,14.20
2022-09-06T22:01:32.113Z,14.30
2022-09-06T22:04:00.176Z,14.20
2022-09-06T22:06:31.663Z,13.30
2022-09-06T22:09:00.284Z,15.80
2022-09-06T22:11:29.546Z,16.60
2022-09-06T22:14:05.728Z,17.80
2022-09-06T22:16:34.324Z,15.50
2022-09-06T22:19:01.851Z,14.60
2022-09-06T22:21:29.027Z,11.80
2022-09-06T22:24:04.468Z,14.70
2022-09-06T22:26:32.719Z,19.30
2022-09-06T22:29:01.516Z,13.00
2022-09-06T22:31:29.815Z,14.60
2022-09-06T22:33:57.246Z,14.20
2022-09-06T22:36:24.804Z,12.80
2022-09-06T22:38:59.069Z,15.30
2022-09-06T22:41:27.904Z,10.10
2022-09-06T22:43:55.184Z,13.30
2022-09-06T22:46:22.793Z,11.80
2022-09-06T22:48:50.904Z,10.60
2022-09-06T22:51:18.141Z,14.90
2022-09-06T22:53:45.395Z,12.10
2022-09-06T22:56:12.887Z,15.00
2022-09-06T22:58:40.003Z,15.00
2022-09-06T23:01:11.872Z,17.80
2022-09-06T23:03:39.273Z,19.50
2022-09-06T23:06:06.673Z,15.90
2022-09-06T23:08:35.385Z,13.30
2022-09-06T23:11:10.098Z,14.30
2022-09-06T23:13:37.438Z,15.60
2022-09-06T23:16:10.178Z,12.80
2022-09-06T23:18:37.375Z,15.30
2022-09-06T23:21:08.841Z,15.40
2022-09-06T23:23:36.691Z,13.10
2022-09-06T23:26:08.553Z,13.40
2022-09-06T23:28:36.528Z,12.90
2022-09-06T23:31:08.522Z,11.20
2022-09-06T23:33:36.651Z,11.50
2022-09-06T23:36:05.548Z,13.50
2022-09-06T23:38:33.818Z,12.00
2022-09-06T23:41:01.375Z,13.90
2022-09-06T23:43:28.861Z,11.20
2022-09-06T23:45:56.085Z,11.10
2022-09-06T23:48:23.363Z,18.90
2022-09-06T23:50:50.722Z,10.00
2022-09-06T23:53:18.617Z,14.30
2022-09-06T23:55:45.750Z,11.70
2022-09-06T23:58:13.162Z,10.20
